NY Terminal Aviation Weather Discussion (AFD)
A WEAKENING COLD FRONT CROSSES THE AREA INTO THIS
AFTERNOON...FOLLOWED BY HIGH PRESSURE BUILDING DOWN FROM SOUTH
CENTRAL CANADA INTO TONIGHT.

VFR THROUGH THE TAF PERIOD.

WINDS HAVE BEEN SLOWER TO VEER TO THE NW FROM THE SW THAN
EXPECTED...SO HAVE DELAYED WINDS GETTING TO THE LEFT OF 300
TRUE/310 MAGNETIC UNTIL 12-13Z. APPEARS WINDS SHOULD GUST TO
AROUND 15-20KT FROM LATE MORNING INTO MID AFTERNOON. GUSTS ABATE
BY EARLY EVENING AS WINDS VEER TO THE N THEN NNE-NE AND SPEEDS
FALL BELOW 10 KT.

*************************************************************************************
KJFK Terminal Weather:

FTNA35 KJFK 190854 RRE
KJFK 190847Z 1909/2012 26007KT P6SM BKN250
     FM191100 29008KT P6SM BKN250
     FM191400 33010KT P6SM FEW070
     FM191600 33013G20KT P6SM SKC
     FM192200 35013KT P6SM SKC
     FM200200 02010KT P6SM SKC
KJFK Forecaster Comments Not Available at This Time
*************************************************************************************
KLGA Terminal Weather:
FTUS80 KLGA 190848 AAB
KLGA 190847Z 1909/2006 24006KT P6SM SCT250
     FM191100 28006KT P6SM BKN250
     FM191300 32008KT P6SM FEW070
     FM191600 33010G17KT P6SM SKC
     FM192100 35010KT P6SM SKC
     FM200200 03010KT P6SM SKC
KLGA Forecaster Comments Not Available at This Time
*************************************************************************************
KEWR Terminal Weather:
FTUS80 KEWR 190848 AAA
KEWR 190847Z 1909/2012 VRB04KT P6SM BKN250
     FM191100 29006KT P6SM FEW070
     FM191300 33008KT P6SM FEW070
     FM191500 34012G19KT P6SM SKC
     FM192200 36013KT P6SM SKC
     FM200500 03009KT P6SM SKC
KEWR Forecaster Comments Not Available at This Time
*************************************************************************************
KTEB Terminal Weather:
FTUS80 KTEB 190848 AAC
KTEB 190847Z 1909/2006 VRB03KT P6SM BKN250
     FM191300 33008KT P6SM FEW060
     FM191600 33009G16KT P6SM SKC
     FM192100 35008KT P6SM SKC
     FM200200 VRB04KT P6SM SKC
KTEB Forecaster Comments Not Available at This Time
*************************************************************************************
KHPN Terminal Weather:
FTUS80 KHPN 190848 AAA
KHPN 190847Z 1909/2006 VRB02KT P6SM BKN250
     FM191200 32008KT P6SM FEW060
     FM191500 32013G19KT P6SM SKC
     FM192100 33011KT P6SM SKC
     FM200200 01007KT P6SM SKC AMD NOT SKED
KHPN Forecaster Comments Not Available at This Time
*************************************************************************************
KISP Terminal Weather:
FTUS51 KISP 190848 AAA
KISP 190847Z 1909/2006 VRB03KT P6SM BKN250
     FM191200 33008KT P6SM FEW070
     FM191500 33012G19KT P6SM SKC
     FM192100 35009KT P6SM SKC
     FM200200 03007KT P6SM SKC
KISP Forecaster Comments Not Available at This Time

*************************************************************************************
5 Day General Outlook:

.OUTLOOK FOR 06Z SUNDAY THROUGH WEDNESDAY...
.LATE SATURDAY NIGHT-TUESDAY MORNING...VFR.
.TUESDAY AFTERNOON-WEDNESDAY MORNING...SHRA LIKELY...WITH MVFR OR
LOWER POSSIBLE. NW-N WINDS G202-5KT POSSIBLE LATE TUESDAY
NIGHT/WEDNESDAY MORNING.
.WEDNESDAY AFTERNOON...MOST LIKELY VFR...WITH LOW CHANCE MVFR.
NW-N WIND G 20-25KT POSSIBLE.


Click the Print Icon print icon below to print the briefing sheet